Buckland Airport
PABL : rendu visible

Aérodrome :











RETROUVEZ-NOUS SUR...

 
LOGIN :

S'inscrire | Disclaimer

   EN    FR    IT 

 









Légende :    VFR   VFR Marginal   IFR   IFR Intensif   IFR Très Intensif
Visi : 
Plafond : 
>= 8 km
>= 3000ft
5 à 8 km
1000 à 3000 ft
1500m à 5 km
500 à 1000 ft
800 à 1500m
200 à 500 ft
< 800m
< 200 ft
Symboles :   Orages  Brouillard  Fortes neiges  Fortes précipitations  Vent > 20 kt






- Altitude de l'aérodrome : 31 ft
- Code IATA : BVK


PABL - Buckland

DERNIER METAR :
  • 271156Z AUTO 16004KT 10SM CLR M34/M37 A3004 RMK AO2 SLP174 T13391367 11317 21339 58003 FZRANO

METARs EXPIRÉS :
  • 271056Z AUTO 14006KT 10SM CLR M34/M37 A3004 RMK AO2 SLP176 T13391367 FZRANO
  • 270956Z AUTO 12006KT 10SM CLR M33/M36 A3005 RMK AO2 SLP180 T13331361 FZRANO

TAF N/A



MET'MAP, la Météo Aéronautique d'un coup d'oeil ! - Copyright ORBIFLY Décembre 2007 - Disclaimer

ORBIFLY MET'MAP TEAM :

Programmation & Développement : Alexandra Zaïnal
Sur une idée originale de : Baudouin d'Aumeries
Assistance à la programmation : Marc-Olivier Méhu
Soutien technique & logistique : Manuel Goepfert

Contact : metmap@orbifly.com




SOURCES & CREDITS :

   NOAA       Earth
Advisory